Time;durP1;ratioP1;P1;durP2;ratioP2;P2;SDS_P1;SDS_P2;PMS_P1;PMS_P2;Temp;Humidity;BMP_temperature;BMP_pressure;BME280_temperature;BME280_humidity;BME280_pressure;Samples;Min_cycle;Max_cycle;Signal;HPM_P1;HPM_P2
2023/01/06 00:02:08;;;;;;;9.60;4.40;;;10.50;99.90;;;;;;5035158;28;20029;-75
2023/01/06 00:04:33;;;;;;;13.95;5.22;;;10.40;99.90;;;;;;5033269;28;20037;-75
2023/01/06 00:06:59;;;;;;;20.53;4.83;;;10.40;99.90;;;;;;5033361;28;20048;-81
2023/01/06 00:09:25;;;;;;;13.63;5.20;;;10.30;99.90;;;;;;5035091;28;20033;-80
2023/01/06 00:11:50;;;;;;;10.77;4.23;;;10.30;99.90;;;;;;5033279;28;20860;-74
2023/01/06 00:14:16;;;;;;;11.90;3.83;;;10.20;99.90;;;;;;5034851;28;20336;-76
2023/01/06 00:16:42;;;;;;;13.70;3.70;;;10.20;99.90;;;;;;5032093;28;20053;-75
2023/01/06 00:19:10;;;;;;;11.80;3.27;;;10.20;99.90;;;;;;5036009;28;20029;-75
2023/01/06 00:21:35;;;;;;;13.05;3.88;;;10.30;99.90;;;;;;5035208;28;20033;-76
2023/01/06 00:24:01;;;;;;;22.77;3.37;;;10.30;99.90;;;;;;5035649;28;20025;-75
2023/01/06 00:26:27;;;;;;;9.65;2.63;;;10.30;99.90;;;;;;5034886;28;20075;-75
2023/01/06 00:28:54;;;;;;;10.00;2.83;;;10.30;99.90;;;;;;5036245;28;20029;-75
2023/01/06 00:31:21;;;;;;;15.43;2.63;;;10.40;99.90;;;;;;5036022;28;20021;-75
2023/01/06 00:33:47;;;;;;;19.80;3.70;;;10.40;99.90;;;;;;5035239;28;20029;-75
2023/01/06 00:36:15;;;;;;;16.87;2.30;;;10.40;99.90;;;;;;5032070;28;20026;-74
2023/01/06 00:38:40;;;;;;;5.13;1.75;;;10.40;99.90;;;;;;5033223;28;20060;-75
2023/01/06 00:43:53;;;;;;;13.55;2.47;;;10.40;99.90;;;;;;5033593;28;20040;-75
2023/01/06 00:46:19;;;;;;;5.47;2.70;;;10.40;99.90;;;;;;5034533;28;20030;-76
2023/01/06 00:48:45;;;;;;;9.30;2.53;;;10.40;99.90;;;;;;5035220;28;20025;-76
2023/01/06 00:51:10;;;;;;;6.80;2.30;;;10.40;99.90;;;;;;5035785;28;20021;-75
2023/01/06 00:53:36;;;;;;;9.07;2.95;;;10.40;99.90;;;;;;5029919;28;20451;-75
2023/01/06 00:56:02;;;;;;;12.57;2.93;;;10.40;99.90;;;;;;5034881;28;20021;-75
2023/01/06 00:58:31;;;;;;;4.90;3.30;;;10.40;99.90;;;;;;5033211;28;20045;-75
2023/01/06 01:00:57;;;;;;;6.88;3.25;;;10.40;99.90;;;;;;5034133;28;20021;-75
2023/01/06 01:03:23;;;;;;;6.80;3.10;;;10.40;99.90;;;;;;5033115;28;20434;-75
2023/01/06 01:05:49;;;;;;;10.67;3.40;;;10.40;99.90;;;;;;5030987;28;20112;-75
2023/01/06 01:08:15;;;;;;;9.80;3.50;;;10.30;99.90;;;;;;5028325;28;20793;-75
2023/01/06 01:10:40;;;;;;;7.65;3.75;;;10.40;99.90;;;;;;5030483;28;20080;-75
2023/01/06 01:13:06;;;;;;;6.00;3.58;;;10.40;99.90;;;;;;5034253;28;20025;-75
2023/01/06 01:15:32;;;;;;;14.20;3.60;;;10.40;99.90;;;;;;5023375;28;20029;-76
2023/01/06 01:17:57;;;;;;;9.27;3.83;;;10.30;99.90;;;;;;5035194;28;20033;-75
2023/01/06 01:20:23;;;;;;;6.53;3.73;;;10.40;99.90;;;;;;5032005;28;20025;-75
2023/01/06 01:22:48;;;;;;;12.33;4.00;;;10.30;99.90;;;;;;5041686;28;20380;-74
2023/01/06 01:25:14;;;;;;;8.43;4.43;;;10.40;99.90;;;;;;5033314;28;20344;-75
2023/01/06 01:27:40;;;;;;;11.77;4.10;;;10.30;99.90;;;;;;5014806;28;20029;-76
2023/01/06 01:30:06;;;;;;;9.45;4.32;;;10.40;99.90;;;;;;5030589;28;20025;-75
2023/01/06 01:32:32;;;;;;;9.30;3.83;;;10.30;99.90;;;;;;5033247;28;20032;-75
2023/01/06 01:34:58;;;;;;;8.63;3.97;;;10.30;99.90;;;;;;5034476;28;20037;-75
2023/01/06 01:37:23;;;;;;;12.77;4.33;;;10.30;99.90;;;;;;5032847;28;20060;-74
2023/01/06 01:39:49;;;;;;;8.10;4.07;;;10.30;99.90;;;;;;5033011;28;20033;-79
2023/01/06 01:42:18;;;;;;;11.20;4.10;;;10.30;99.90;;;;;;5031643;28;20333;-75
2023/01/06 01:45:06;;;;;;;12.25;3.95;;;10.40;99.90;;;;;;5034646;28;20317;-75
2023/01/06 01:47:32;;;;;;;7.28;3.70;;;10.30;99.90;;;;;;5029980;28;20018;-76
2023/01/06 01:50:10;;;;;;;9.80;3.53;;;10.30;99.90;;;;;;5027009;28;20494;-75
2023/01/06 01:52:35;;;;;;;9.95;3.78;;;10.30;99.90;;;;;;5033684;28;20045;-75
2023/01/06 01:55:02;;;;;;;14.53;3.63;;;10.30;99.90;;;;;;5034009;28;20021;-75
2023/01/06 01:57:58;;;;;;;11.95;4.03;;;10.30;99.90;;;;;;5029850;28;20040;-75
2023/01/06 02:00:23;;;;;;;9.73;3.97;;;10.30;99.90;;;;;;5033398;28;20420;-75
2023/01/06 02:02:49;;;;;;;12.47;4.23;;;10.30;99.90;;;;;;5033314;28;20026;-76
2023/01/06 02:05:20;;;;;;;13.37;3.97;;;10.30;99.90;;;;;;5031505;28;20029;-74
2023/01/06 02:07:46;;;;;;;8.10;3.92;;;10.30;99.90;;;;;;5032010;28;20167;-78
2023/01/06 02:10:16;;;;;;;6.85;3.22;;;10.30;99.90;;;;;;5030696;28;20428;-75
2023/01/06 02:12:43;;;;;;;15.05;3.55;;;10.30;99.90;;;;;;5032555;28;20161;-75
2023/01/06 02:15:21;;;;;;;9.00;4.18;;;10.20;99.90;;;;;;5032121;28;20115;-75
2023/01/06 02:18:08;;;;;;;11.68;3.60;;;10.20;99.90;;;;;;5030361;28;20355;-75
2023/01/06 02:21:09;;;;;;;7.90;3.72;;;10.20;99.90;;;;;;5030890;28;20108;-75
2023/01/06 02:23:50;;;;;;;5.80;3.50;;;10.20;99.90;;;;;;5031251;28;20040;-75
2023/01/06 02:26:21;;;;;;;7.93;3.35;;;10.20;99.90;;;;;;5032567;28;20069;-76
2023/01/06 02:29:09;;;;;;;8.57;3.17;;;10.20;99.90;;;;;;5028958;28;20515;-76
2023/01/06 02:31:43;;;;;;;6.20;2.95;;;10.30;99.90;;;;;;5032409;28;20413;-75
2023/01/06 02:34:38;;;;;;;8.13;3.38;;;10.30;99.90;;;;;;5031945;28;20024;-75
2023/01/06 02:37:43;;;;;;;7.00;2.92;;;10.30;99.90;;;;;;5032679;28;20021;-76
2023/01/06 02:40:23;;;;;;;4.87;2.70;;;10.30;99.90;;;;;;5032735;28;20025;-74
2023/01/06 02:43:16;;;;;;;4.22;3.17;;;10.30;99.90;;;;;;5030815;28;20111;-76
2023/01/06 02:45:41;;;;;;;7.05;2.55;;;10.30;99.90;;;;;;5026886;28;20025;-75
2023/01/06 02:48:31;;;;;;;4.03;2.27;;;10.30;99.90;;;;;;5032540;28;20032;-75
2023/01/06 02:51:12;;;;;;;3.63;2.40;;;10.30;99.90;;;;;;5026511;28;20483;-75
2023/01/06 02:54:09;;;;;;;7.97;3.00;;;10.30;99.90;;;;;;5025690;28;20072;-74
2023/01/06 02:56:41;;;;;;;5.45;2.75;;;10.30;99.90;;;;;;5025826;28;20033;-74
2023/01/06 02:59:14;;;;;;;5.47;2.53;;;10.30;99.90;;;;;;5032937;28;20041;-75
2023/01/06 03:01:45;;;;;;;5.07;2.20;;;10.30;99.90;;;;;;5027647;28;20021;-75
2023/01/06 03:04:26;;;;;;;4.97;2.05;;;10.30;99.90;;;;;;5030193;28;20052;-75
2023/01/06 03:06:55;;;;;;;4.38;2.17;;;10.30;99.90;;;;;;5020826;28;20033;-78
2023/01/06 03:09:26;;;;;;;8.43;2.03;;;10.30;99.90;;;;;;5029660;28;20022;-75
2023/01/06 03:11:52;;;;;;;5.40;2.20;;;10.20;99.90;;;;;;5032732;28;20026;-76
2023/01/06 03:14:40;;;;;;;4.93;1.67;;;10.30;99.90;;;;;;5031373;28;20034;-75
2023/01/06 03:17:06;;;;;;;4.00;2.40;;;10.30;99.90;;;;;;5028133;28;20025;-74
2023/01/06 03:19:32;;;;;;;8.50;2.13;;;10.20;99.90;;;;;;5030850;28;20075;-74
2023/01/06 03:22:00;;;;;;;2.47;1.70;;;10.30;99.90;;;;;;5035700;28;20428;-74
2023/01/06 03:24:27;;;;;;;5.57;1.90;;;10.30;99.90;;;;;;5036773;28;20044;-75
2023/01/06 03:26:52;;;;;;;;;;;10.30;99.90;;;;;;5036306;28;20033;-74
2023/01/06 03:29:19;;;;;;;3.90;1.77;;;10.30;99.90;;;;;;5031806;28;20398;-74
2023/01/06 03:32:02;;;;;;;5.07;1.98;;;10.30;99.90;;;;;;5037158;28;20616;-80
2023/01/06 03:34:50;;;;;;;8.93;2.35;;;10.30;99.90;;;;;;5034867;28;20029;-75
2023/01/06 03:37:47;;;;;;;3.78;1.70;;;10.30;99.90;;;;;;5030917;28;20384;-75
2023/01/06 03:40:30;;;;;;;2.63;1.50;;;10.30;99.90;;;;;;4997123;28;20037;-75
2023/01/06 03:43:19;;;;;;;4.55;1.23;;;10.30;99.90;;;;;;5026471;28;20049;-75
2023/01/06 03:46:07;;;;;;;4.32;1.60;;;10.30;99.90;;;;;;5034658;28;20038;-75
2023/01/06 03:48:43;;;;;;;5.35;1.80;;;10.30;99.90;;;;;;5030490;28;20042;-75
2023/01/06 03:51:28;;;;;;;2.35;1.15;;;10.30;99.90;;;;;;5034127;28;20049;-75
2023/01/06 03:53:54;;;;;;;1.52;1.10;;;10.30;99.90;;;;;;5036191;28;20363;-75
2023/01/06 03:56:31;;;;;;;5.33;1.30;;;10.30;99.90;;;;;;5036486;28;20075;-75
2023/01/06 03:59:02;;;;;;;5.18;1.08;;;10.30;99.90;;;;;;5033164;28;20104;-75
2023/01/06 04:01:29;;;;;;;2.63;1.02;;;10.30;99.90;;;;;;5016128;28;20073;-75
2023/01/06 04:03:55;;;;;;;5.32;1.70;;;10.30;99.90;;;;;;5034561;28;20040;-74
2023/01/06 04:06:21;;;;;;;4.73;1.30;;;10.30;99.90;;;;;;5027456;28;20120;-75
2023/01/06 04:08:47;;;;;;;7.97;1.42;;;10.40;99.90;;;;;;5033128;28;20029;-74
2023/01/06 04:13:58;;;;;;;2.95;1.40;;;10.40;99.90;;;;;;5034853;28;20169;-74
2023/01/06 04:16:24;;;;;;;7.43;1.73;;;10.40;99.90;;;;;;5031876;28;20032;-75
2023/01/06 04:18:50;;;;;;;1.58;1.10;;;10.30;99.90;;;;;;5036262;28;20033;-75
2023/01/06 04:21:15;;;;;;;2.73;1.10;;;10.40;99.90;;;;;;5036043;28;20404;-75
2023/01/06 04:23:41;;;;;;;5.50;1.73;;;10.40;99.90;;;;;;5038476;28;20030;-76
2023/01/06 04:26:07;;;;;;;3.80;1.40;;;10.40;99.90;;;;;;5033274;28;20022;-77
2023/01/06 04:28:33;;;;;;;2.33;1.37;;;10.40;99.90;;;;;;5035964;28;20029;-76
2023/01/06 04:31:00;;;;;;;2.27;1.10;;;10.40;99.90;;;;;;5035779;28;20087;-75
2023/01/06 04:33:25;;;;;;;;;;;10.40;99.90;;;;;;5034982;28;20112;-75
2023/01/06 04:35:51;;;;;;;5.10;1.57;;;10.40;99.90;;;;;;5034366;28;19996;-75
2023/01/06 04:38:16;;;;;;;10.80;1.93;;;10.40;99.90;;;;;;5035736;28;20044;-77
2023/01/06 04:40:42;;;;;;;1.70;1.23;;;10.30;99.90;;;;;;5034673;28;20063;-75
2023/01/06 04:43:13;;;;;;;5.20;1.30;;;10.40;99.90;;;;;;5032758;28;20068;-75
2023/01/06 04:45:39;;;;;;;1.70;1.40;;;10.30;99.90;;;;;;5034715;28;20053;-75
2023/01/06 04:48:06;;;;;;;2.17;1.33;;;10.30;99.90;;;;;;5031624;28;20973;-75
2023/01/06 04:50:32;;;;;;;2.97;1.17;;;10.30;99.90;;;;;;5035792;28;20317;-74
2023/01/06 04:52:57;;;;;;;7.13;1.80;;;10.30;99.90;;;;;;5034294;28;20036;-75
2023/01/06 04:55:23;;;;;;;1.53;1.30;;;10.40;99.90;;;;;;5034454;28;20408;-81
2023/01/06 04:57:49;;;;;;;5.73;1.87;;;10.40;99.90;;;;;;5035288;28;20430;-75
2023/01/06 05:00:15;;;;;;;3.60;1.70;;;10.40;99.90;;;;;;5030021;28;20027;-75
2023/01/06 05:02:41;;;;;;;6.23;1.40;;;10.40;99.90;;;;;;5029164;28;20045;-75
2023/01/06 05:05:07;;;;;;;5.23;1.90;;;10.40;99.90;;;;;;5034561;28;20337;-74
2023/01/06 05:07:33;;;;;;;9.13;1.80;;;10.40;99.90;;;;;;5032795;28;20030;-74
2023/01/06 05:09:59;;;;;;;3.73;2.07;;;10.40;99.90;;;;;;5034011;28;20032;-74
2023/01/06 05:12:24;;;;;;;2.33;1.70;;;10.40;99.90;;;;;;5034353;28;20092;-74
2023/01/06 05:14:50;;;;;;;3.67;1.63;;;10.40;99.90;;;;;;5034176;28;20025;-75
2023/01/06 05:17:16;;;;;;;4.80;1.90;;;10.40;99.90;;;;;;5033823;28;20037;-78
2023/01/06 05:19:43;;;;;;;6.03;2.07;;;10.40;99.90;;;;;;5030419;28;20159;-75
2023/01/06 05:22:09;;;;;;;;;;;10.40;99.90;;;;;;5034828;28;20052;-75
2023/01/06 05:24:34;;;;;;;4.28;1.83;;;10.30;99.90;;;;;;5033325;28;19956;-75
2023/01/06 05:27:00;;;;;;;4.23;1.60;;;10.30;99.90;;;;;;5032008;28;20056;-74
2023/01/06 05:29:26;;;;;;;8.57;2.27;;;10.20;99.90;;;;;;5028752;28;20038;-76
2023/01/06 05:31:51;;;;;;;7.77;1.70;;;10.20;99.90;;;;;;5032015;28;20093;-74
2023/01/06 05:34:17;;;;;;;2.53;1.90;;;10.20;99.90;;;;;;5033493;28;20064;-75
2023/01/06 05:36:43;;;;;;;5.73;1.43;;;10.20;99.90;;;;;;5032737;28;20056;-75
2023/01/06 05:39:08;;;;;;;4.43;2.17;;;10.10;99.90;;;;;;5030987;28;20060;-75
2023/01/06 05:41:34;;;;;;;11.07;2.53;;;10.10;99.90;;;;;;5031209;28;20081;-76
2023/01/06 05:44:00;;;;;;;3.10;1.93;;;10.10;99.90;;;;;;5034622;28;20029;-80
2023/01/06 05:46:25;;;;;;;9.07;2.00;;;10.10;99.90;;;;;;5031065;28;20044;-75
2023/01/06 05:48:51;;;;;;;4.60;2.33;;;10.10;99.90;;;;;;5032395;28;20027;-75
2023/01/06 05:51:17;;;;;;;2.33;1.97;;;10.10;99.90;;;;;;5027800;28;20025;-75
2023/01/06 05:53:45;;;;;;;5.13;2.35;;;10.10;99.90;;;;;;5032236;28;20029;-75
2023/01/06 05:56:14;;;;;;;7.25;2.50;;;10.10;99.90;;;;;;5028030;28;20028;-74
2023/01/06 05:58:44;;;;;;;3.10;2.25;;;10.10;99.90;;;;;;5032040;28;20328;-76
2023/01/06 06:01:27;;;;;;;3.83;2.40;;;10.00;99.90;;;;;;5031726;28;20040;-76
2023/01/06 06:03:53;;;;;;;5.55;2.88;;;10.10;99.90;;;;;;5026060;28;20021;-76
2023/01/06 06:06:21;;;;;;;5.07;2.35;;;10.00;99.90;;;;;;5029884;28;20108;-76
2023/01/06 06:08:47;;;;;;;7.60;2.40;;;10.00;99.90;;;;;;5031505;28;20064;-74
2023/01/06 06:11:15;;;;;;;6.67;2.73;;;10.00;99.90;;;;;;5031899;28;20061;-77
2023/01/06 06:13:52;;;;;;;4.47;2.53;;;10.00;99.90;;;;;;5028830;28;20754;-74
2023/01/06 06:16:20;;;;;;;10.40;3.50;;;10.00;99.90;;;;;;5021112;28;20018;-75
2023/01/06 06:18:54;;;;;;;13.60;2.72;;;10.00;99.90;;;;;;5019756;28;20022;-76
2023/01/06 06:21:23;;;;;;;8.35;2.80;;;10.00;99.90;;;;;;5028052;28;20464;-75
2023/01/06 06:23:51;;;;;;;9.57;2.38;;;10.00;99.90;;;;;;5026917;28;20026;-75
2023/01/06 06:26:18;;;;;;;10.02;3.55;;;10.00;99.90;;;;;;5030741;28;20885;-74
2023/01/06 06:28:43;;;;;;;7.20;2.95;;;10.00;99.90;;;;;;5028718;28;20365;-74
2023/01/06 06:31:19;;;;;;;4.63;2.83;;;9.90;99.90;;;;;;5031192;28;20117;-73
2023/01/06 06:33:45;;;;;;;3.88;2.70;;;9.90;99.90;;;;;;5027561;28;20021;-75
2023/01/06 06:36:14;;;;;;;4.60;2.90;;;9.90;99.90;;;;;;5029207;28;20159;-74
2023/01/06 06:38:41;;;;;;;4.97;3.40;;;9.90;99.90;;;;;;5031192;28;20064;-74
2023/01/06 06:41:06;;;;;;;5.97;3.38;;;9.90;99.90;;;;;;5029305;28;20121;-75
2023/01/06 06:43:33;;;;;;;5.70;3.20;;;10.00;99.90;;;;;;5023565;28;20120;-75
2023/01/06 06:45:59;;;;;;;8.15;3.28;;;9.90;99.90;;;;;;5029575;28;20093;-75
2023/01/06 06:48:24;;;;;;;9.80;3.83;;;10.00;99.90;;;;;;5027960;28;20026;-75
2023/01/06 06:51:00;;;;;;;4.95;3.28;;;9.90;99.90;;;;;;5025043;28;20349;-75
2023/01/06 06:53:27;;;;;;;7.35;3.05;;;9.90;99.90;;;;;;5022445;28;20053;-74
2023/01/06 06:55:54;;;;;;;6.88;3.28;;;9.90;99.90;;;;;;5032935;28;20076;-80
2023/01/06 06:58:20;;;;;;;6.32;3.92;;;10.00;99.90;;;;;;5028426;28;20060;-75
2023/01/06 07:00:46;;;;;;;5.67;4.50;;;10.00;99.90;;;;;;5017628;28;20057;-76
2023/01/06 07:03:12;;;;;;;6.20;3.50;;;10.00;99.90;;;;;;5036290;28;20028;-74
2023/01/06 07:05:38;;;;;;;5.63;4.10;;;10.00;99.90;;;;;;5032737;28;20033;-75
2023/01/06 07:08:04;;;;;;;7.37;3.93;;;10.00;99.90;;;;;;5031862;28;20042;-74
2023/01/06 07:10:30;;;;;;;5.93;3.90;;;10.10;99.90;;;;;;5027206;28;20014;-75
2023/01/06 07:12:55;;;;;;;9.13;2.70;;;10.10;99.90;;;;;;5030501;28;20040;-74
2023/01/06 07:15:21;;;;;;;6.28;2.78;;;10.10;99.90;;;;;;5024340;28;20105;-75
2023/01/06 07:17:47;;;;;;;7.47;2.08;;;10.10;99.90;;;;;;5030639;28;20172;-75
2023/01/06 07:20:12;;;;;;;5.57;2.17;;;10.10;99.90;;;;;;5031029;28;20040;-77
2023/01/06 07:22:39;;;;;;;8.93;2.20;;;10.10;99.90;;;;;;5034660;28;20409;-76
2023/01/06 07:25:06;;;;;;;8.40;2.00;;;10.10;99.90;;;;;;5028397;28;20029;-77
2023/01/06 07:27:32;;;;;;;12.15;2.70;;;10.00;99.90;;;;;;5030864;28;20032;-78
2023/01/06 07:29:58;;;;;;;9.15;1.27;;;10.00;99.90;;;;;;5030545;28;20305;-75
2023/01/06 07:32:24;;;;;;;6.43;1.37;;;10.00;99.90;;;;;;5031313;28;20032;-82
2023/01/06 07:34:49;;;;;;;7.87;1.37;;;10.00;99.90;;;;;;5029632;28;20075;-75
2023/01/06 07:37:15;;;;;;;18.93;2.10;;;10.00;99.90;;;;;;5034957;28;20025;-75
2023/01/06 07:39:41;;;;;;;11.63;1.40;;;10.00;99.90;;;;;;5028807;28;20038;-75
2023/01/06 07:42:08;;;;;;;10.80;1.70;;;10.00;99.90;;;;;;5036375;28;20460;-75
2023/01/06 07:44:34;;;;;;;18.33;2.42;;;9.90;99.90;;;;;;5033220;28;20368;-75
2023/01/06 07:47:00;;;;;;;12.43;1.87;;;9.90;99.90;;;;;;5029839;28;20108;-75
2023/01/06 07:49:25;;;;;;;19.53;1.67;;;9.90;99.90;;;;;;5026595;28;20101;-75
2023/01/06 07:51:51;;;;;;;13.60;2.57;;;9.90;99.90;;;;;;5032193;28;20057;-75
2023/01/06 07:54:16;;;;;;;14.10;2.00;;;9.80;99.90;;;;;;5033339;28;20025;-76
2023/01/06 07:56:43;;;;;;;9.40;2.00;;;9.80;99.90;;;;;;5029169;28;20025;-75
2023/01/06 07:59:09;;;;;;;15.47;2.20;;;9.70;99.90;;;;;;5030470;28;20112;-75
2023/01/06 08:01:35;;;;;;;9.40;2.38;;;9.70;99.90;;;;;;5031174;28;20120;-76
2023/01/06 08:04:01;;;;;;;11.52;2.00;;;9.60;99.90;;;;;;5027972;28;20048;-76
2023/01/06 08:06:26;;;;;;;12.80;1.40;;;9.60;99.90;;;;;;5030872;28;20026;-76
2023/01/06 08:08:52;;;;;;;18.40;1.70;;;9.50;99.90;;;;;;5030749;28;20095;-83
2023/01/06 08:11:18;;;;;;;8.57;1.30;;;9.40;99.90;;;;;;5031758;28;20367;-75
2023/01/06 08:13:44;;;;;;;17.03;2.20;;;9.30;99.90;;;;;;5028460;28;20033;-75
2023/01/06 08:16:10;;;;;;;15.80;1.83;;;9.20;99.90;;;;;;5027892;28;20025;-75
2023/01/06 08:18:36;;;;;;;13.35;2.30;;;9.10;99.90;;;;;;5028442;28;20504;-75
2023/01/06 08:21:10;;;;;;;18.33;1.80;;;9.10;99.90;;;;;;5014575;28;20052;-75
2023/01/06 08:23:36;;;;;;;15.05;1.98;;;9.00;99.90;;;;;;5032955;28;20100;-75
2023/01/06 08:26:08;;;;;;;15.15;1.88;;;9.00;99.90;;;;;;5031696;28;20105;-76
2023/01/06 08:28:33;;;;;;;15.95;2.40;;;8.90;99.90;;;;;;5027060;28;20034;-75
2023/01/06 08:30:59;;;;;;;9.20;1.67;;;8.90;99.90;;;;;;5034427;28;20026;-75
2023/01/06 08:33:26;;;;;;;21.13;2.10;;;8.80;99.90;;;;;;5029569;28;20272;-75
2023/01/06 08:35:58;;;;;;;12.10;2.17;;;8.70;99.90;;;;;;5023616;28;20268;-75
2023/01/06 08:38:25;;;;;;;11.65;1.65;;;8.70;99.90;;;;;;5026877;28;20080;-75
2023/01/06 08:40:52;;;;;;;17.40;1.83;;;8.60;99.90;;;;;;5035880;28;20030;-76
2023/01/06 08:43:18;;;;;;;14.88;1.83;;;8.70;99.90;;;;;;5034769;28;20447;-75
2023/01/06 08:45:44;;;;;;;15.38;2.08;;;8.60;99.90;;;;;;5029037;28;20061;-75
2023/01/06 08:48:09;;;;;;;19.17;2.23;;;8.60;99.90;;;;;;5022267;28;20377;-75
2023/01/06 08:50:38;;;;;;;11.00;1.85;;;8.60;99.90;;;;;;5035589;28;20029;-75
2023/01/06 08:53:04;;;;;;;17.23;2.40;;;8.60;99.90;;;;;;5034596;28;20504;-83
2023/01/06 08:55:30;;;;;;;17.37;1.43;;;8.70;99.90;;;;;;5026857;28;20029;-75
2023/01/06 08:57:55;;;;;;;12.83;1.97;;;8.70;99.90;;;;;;5029873;28;20721;-76
2023/01/06 09:00:21;;;;;;;10.07;1.23;;;8.70;99.90;;;;;;5031166;28;20049;-75
2023/01/06 09:02:47;;;;;;;10.30;1.40;;;8.70;99.90;;;;;;5034473;28;20358;-76
2023/01/06 09:05:13;;;;;;;10.03;1.67;;;8.70;99.90;;;;;;5033038;28;20116;-75
2023/01/06 09:07:38;;;;;;;9.03;1.00;;;8.70;99.90;;;;;;5033115;28;20041;-75
2023/01/06 09:10:05;;;;;;;11.03;1.37;;;8.70;99.90;;;;;;5027150;28;20033;-75
2023/01/06 09:12:30;;;;;;;5.38;1.30;;;8.70;99.90;;;;;;5030231;28;20022;-75
2023/01/06 09:14:57;;;;;;;10.27;1.57;;;8.70;99.90;;;;;;5033550;28;20028;-75
2023/01/06 09:17:23;;;;;;;10.07;1.25;;;8.80;99.90;;;;;;5027644;28;20033;-76
2023/01/06 09:19:48;;;;;;;12.13;1.77;;;8.80;99.90;;;;;;5032034;28;20056;-76
2023/01/06 09:22:14;;;;;;;9.82;1.63;;;8.80;99.90;;;;;;5028596;28;20140;-75
2023/01/06 09:24:40;;;;;;;18.90;2.33;;;8.80;99.90;;;;;;5027423;28;20040;-75
2023/01/06 09:27:05;;;;;;;13.60;1.43;;;8.80;99.90;;;;;;5027762;28;20037;-75
2023/01/06 09:29:31;;;;;;;9.60;2.07;;;8.80;99.90;;;;;;5027552;28;20026;-85
2023/01/06 09:31:57;;;;;;;6.53;1.10;;;8.90;99.90;;;;;;5030774;28;20029;-76
2023/01/06 09:34:22;;;;;;;15.60;1.80;;;8.90;99.90;;;;;;5020797;28;20026;-75
2023/01/06 09:36:48;;;;;;;12.17;1.40;;;8.90;99.90;;;;;;5028978;28;20092;-76
2023/01/06 09:39:14;;;;;;;13.87;1.60;;;8.90;99.90;;;;;;5029193;28;20037;-84
2023/01/06 09:41:58;;;;;;;8.97;1.40;;;8.90;99.90;;;;;;5028077;28;20053;-75
2023/01/06 09:44:30;;;;;;;8.20;1.50;;;9.00;99.90;;;;;;5020648;28;20156;-75
2023/01/06 09:46:58;;;;;;;10.18;1.67;;;9.00;99.90;;;;;;5030031;28;20116;-75
2023/01/06 09:49:40;;;;;;;12.02;1.33;;;9.00;99.90;;;;;;5031674;28;20022;-76
2023/01/06 09:52:22;;;;;;;7.50;1.33;;;9.00;99.90;;;;;;5032232;28;20443;-75
2023/01/06 09:55:02;;;;;;;8.98;1.10;;;9.10;99.90;;;;;;5022950;28;20344;-75
2023/01/06 09:57:37;;;;;;;8.48;1.17;;;9.10;99.90;;;;;;5031494;28;20440;-75
2023/01/06 10:00:22;;;;;;;4.63;0.97;;;9.10;99.90;;;;;;5028298;28;20042;-75
2023/01/06 10:02:47;;;;;;;11.90;1.40;;;9.20;99.90;;;;;;5022098;28;20431;-75
2023/01/06 10:05:41;;;;;;;16.17;2.13;;;9.20;99.90;;;;;;5032047;28;20060;-75
2023/01/06 10:08:37;;;;;;;4.53;0.68;;;9.20;99.90;;;;;;5029769;28;20033;-76
2023/01/06 10:11:11;;;;;;;7.88;1.17;;;9.30;99.90;;;;;;5027806;28;20022;-75
2023/01/06 10:14:27;;;;;;;4.90;1.42;;;9.30;99.90;;;;;;5027241;28;20120;-76
2023/01/06 10:17:25;;;;;;;6.78;1.23;;;9.40;99.90;;;;;;4971048;28;20717;-76
2023/01/06 10:20:19;;;;;;;4.00;0.93;;;9.40;99.90;;;;;;4977028;28;20034;-76
2023/01/06 10:23:30;;;;;;;9.35;1.23;;;9.50;99.90;;;;;;4930753;28;20047;-76
2023/01/06 10:26:13;;;;;;;3.97;1.02;;;9.50;99.90;;;;;;4964060;28;20038;-76
2023/01/06 10:28:42;;;;;;;5.93;0.73;;;9.50;99.90;;;;;;4976542;28;20046;-75
2023/01/06 10:31:15;;;;;;;9.75;1.13;;;9.60;99.90;;;;;;4977819;28;20046;-75
2023/01/06 10:33:45;;;;;;;10.18;0.98;;;9.70;99.90;;;;;;4971979;28;20362;-76
2023/01/06 10:36:14;;;;;;;4.70;0.98;;;9.70;99.90;;;;;;4976253;28;20018;-75
2023/01/06 10:38:42;;;;;;;3.85;0.90;;;9.80;99.90;;;;;;4973945;28;20023;-75
2023/01/06 10:41:14;;;;;;;6.28;1.13;;;9.90;99.90;;;;;;4977376;28;20066;-75
2023/01/06 10:43:40;;;;;;;5.43;0.68;;;9.90;99.90;;;;;;4975073;28;20030;-75
2023/01/06 10:46:06;;;;;;;5.50;0.77;;;9.90;99.90;;;;;;4957784;28;20377;-75
2023/01/06 10:48:33;;;;;;;7.90;1.20;;;9.90;99.90;;;;;;5023868;28;20072;-75
2023/01/06 10:51:30;;;;;;;5.45;1.02;;;9.90;99.90;;;;;;5031854;28;20036;-75
2023/01/06 10:53:59;;;;;;;7.75;1.17;;;9.90;99.90;;;;;;5024192;28;20290;-74
2023/01/06 10:56:28;;;;;;;9.30;1.00;;;9.90;99.90;;;;;;5033703;28;20072;-75
2023/01/06 10:58:57;;;;;;;8.55;1.48;;;9.90;99.90;;;;;;5030756;28;20116;-76
2023/01/06 11:01:30;;;;;;;7.43;1.35;;;10.00;99.90;;;;;;5024903;28;20113;-75
2023/01/06 11:04:11;;;;;;;6.15;1.17;;;10.00;99.90;;;;;;5030443;28;20026;-76
2023/01/06 11:06:58;;;;;;;5.82;0.90;;;10.00;99.90;;;;;;5024889;28;20030;-75
2023/01/06 11:09:28;;;;;;;6.30;1.10;;;10.00;99.90;;;;;;5031354;28;20104;-78
2023/01/06 11:11:57;;;;;;;8.73;1.10;;;10.00;99.90;;;;;;5029297;28;20022;-76
2023/01/06 11:14:31;;;;;;;9.57;1.30;;;10.00;99.90;;;;;;5030989;28;20491;-75
2023/01/06 11:17:20;;;;;;;4.60;0.85;;;10.00;99.90;;;;;;5030161;28;20508;-75
2023/01/06 11:20:07;;;;;;;6.32;1.30;;;10.00;99.90;;;;;;5021647;28;20030;-75
2023/01/06 11:22:38;;;;;;;5.07;0.68;;;10.00;99.90;;;;;;5020101;28;20086;-75
2023/01/06 11:25:31;;;;;;;12.02;1.15;;;10.00;99.90;;;;;;5020813;28;20040;-75
2023/01/06 11:28:15;;;;;;;2.63;0.85;;;10.10;99.90;;;;;;5026449;28;20436;-75
2023/01/06 11:30:51;;;;;;;11.20;1.25;;;10.10;99.90;;;;;;5025805;28;20026;-75
2023/01/06 11:33:19;;;;;;;3.80;0.80;;;10.10;99.90;;;;;;5025489;28;20071;-76
2023/01/06 11:35:46;;;;;;;12.35;1.48;;;10.20;99.90;;;;;;5029144;28;20025;-75
2023/01/06 11:38:15;;;;;;;3.20;0.88;;;10.20;99.90;;;;;;5022701;28;20029;-75
2023/01/06 11:40:42;;;;;;;7.13;0.65;;;10.30;99.90;;;;;;5028064;28;20424;-75
2023/01/06 11:43:16;;;;;;;9.85;1.35;;;10.30;99.90;;;;;;5035406;28;20553;-75
2023/01/06 11:45:58;;;;;;;6.95;0.70;;;10.40;99.90;;;;;;5031608;28;20506;-75
2023/01/06 11:48:39;;;;;;;6.18;0.70;;;10.40;99.90;;;;;;5034693;28;20028;-75
2023/01/06 11:51:07;;;;;;;7.97;0.98;;;10.30;99.90;;;;;;5037122;28;20025;-76
2023/01/06 11:53:34;;;;;;;1.77;0.93;;;10.40;99.90;;;;;;5032682;28;20321;-75
2023/01/06 11:56:03;;;;;;;7.20;0.80;;;10.40;99.90;;;;;;5031822;28;20025;-75
2023/01/06 11:58:34;;;;;;;5.95;0.80;;;10.40;99.90;;;;;;5038538;28;20040;-75
2023/01/06 12:01:23;;;;;;;3.60;0.70;;;10.40;99.90;;;;;;5035529;28;20108;-85
2023/01/06 12:03:53;;;;;;;4.55;0.63;;;10.40;99.90;;;;;;5033550;28;20033;-75
2023/01/06 12:06:29;;;;;;;6.70;0.70;;;10.40;99.90;;;;;;5036291;28;20029;-84
2023/01/06 12:09:09;;;;;;;4.72;1.17;;;10.40;99.90;;;;;;5032310;28;20053;-75
2023/01/06 12:11:51;;;;;;;6.65;1.08;;;10.50;99.90;;;;;;5033583;28;20022;-75
2023/01/06 12:14:24;;;;;;;5.10;1.15;;;10.50;99.90;;;;;;5035348;28;20056;-75
2023/01/06 12:16:49;;;;;;;5.13;0.73;;;10.50;99.90;;;;;;5045900;28;20040;-75
2023/01/06 12:19:47;;;;;;;3.33;0.70;;;10.50;99.90;;;;;;5035843;28;20029;-75
2023/01/06 12:22:41;;;;;;;6.32;0.70;;;10.60;99.90;;;;;;5018957;28;20037;-74
2023/01/06 12:25:28;;;;;;;9.23;1.27;;;10.60;99.90;;;;;;5034490;28;20029;-75
2023/01/06 12:27:58;;;;;;;6.40;0.60;;;10.50;99.90;;;;;;5035197;28;20026;-75
2023/01/06 12:30:29;;;;;;;2.97;0.70;;;10.60;99.90;;;;;;5030580;28;20025;-75
2023/01/06 12:33:02;;;;;;;9.27;0.80;;;10.60;99.90;;;;;;5032731;28;20033;-85
2023/01/06 12:35:31;;;;;;;5.75;1.30;;;10.60;99.90;;;;;;5035121;28;20103;-75
2023/01/06 12:38:06;;;;;;;6.00;0.90;;;10.60;99.90;;;;;;5031763;28;20036;-75
2023/01/06 12:41:00;;;;;;;6.60;0.88;;;10.60;99.90;;;;;;5034168;28;20105;-84
2023/01/06 12:43:31;;;;;;;7.45;0.95;;;10.50;99.90;;;;;;5028566;28;20033;-83
2023/01/06 12:46:04;;;;;;;6.95;0.68;;;10.50;99.90;;;;;;5030329;28;20448;-75
2023/01/06 12:48:35;;;;;;;13.57;1.02;;;10.50;99.90;;;;;;5033834;28;20030;-75
2023/01/06 12:51:10;;;;;;;7.07;0.73;;;10.50;99.90;;;;;;5031523;28;20029;-75
2023/01/06 12:53:46;;;;;;;2.35;0.80;;;10.60;99.90;;;;;;5026937;28;20025;-75
2023/01/06 12:56:24;;;;;;;3.60;1.17;;;10.60;99.90;;;;;;5027509;28;20032;-75
2023/01/06 12:59:02;;;;;;;4.93;1.00;;;10.60;99.90;;;;;;5030737;28;20029;-75
2023/01/06 13:01:37;;;;;;;3.72;0.98;;;10.60;99.90;;;;;;5030285;28;20029;-74
2023/01/06 13:04:22;;;;;;;37.95;3.38;;;10.70;99.90;;;;;;5032302;28;20116;-82
2023/01/06 13:06:57;;;;;;;6.10;0.95;;;10.60;99.90;;;;;;5019437;28;20044;-80
2023/01/06 13:09:39;;;;;;;6.35;0.80;;;10.50;99.90;;;;;;5026008;28;20036;-81
2023/01/06 13:12:16;;;;;;;5.45;0.75;;;10.50;99.90;;;;;;5033236;28;20041;-80
2023/01/06 13:15:13;;;;;;;7.75;0.85;;;10.40;99.90;;;;;;5034187;28;20036;-83